Time;durP1;ratioP1;P1;durP2;ratioP2;P2;SDS_P1;SDS_P2;PMS_P1;PMS_P2;Temp;Humidity;BMP_temperature;BMP_pressure;BME280_temperature;BME280_humidity;BME280_pressure;Samples;Min_cycle;Max_cycle;Signal;HPM_P1;HPM_P2
2022/10/06 00:01:32;;;;;;;;;0.00;0.00;;;;;14.52;76.65;100402.50;5038103;28;8839;-59
2022/10/06 00:04:00;;;;;;;;;0.40;0.00;;;;;14.41;76.90;100418.69;5037987;28;8916;-61
2022/10/06 00:06:28;;;;;;;;;0.00;0.00;;;;;14.27;76.76;100427.94;5038677;28;8843;-62
2022/10/06 00:08:55;;;;;;;;;0.00;0.00;;;;;14.16;77.15;100435.16;5038220;28;9512;-61
2022/10/06 00:11:23;;;;;;;;;1.00;1.00;;;;;14.08;77.32;100434.97;5037919;28;8928;-63
2022/10/06 00:13:51;;;;;;;;;0.00;0.00;;;;;14.01;77.04;100429.31;5038243;28;8851;-61
2022/10/06 00:16:20;;;;;;;;;0.20;0.00;;;;;13.95;77.42;100435.19;5038096;28;8823;-62
2022/10/06 00:18:48;;;;;;;;;0.00;0.00;;;;;13.93;77.19;100436.28;5038276;28;8858;-59
2022/10/06 00:21:15;;;;;;;;;0.00;0.00;;;;;13.93;77.72;100422.91;5037440;28;8852;-60
2022/10/06 00:23:43;;;;;;;;;0.00;0.00;;;;;13.93;77.09;100434.47;5036635;28;8835;-60
2022/10/06 00:26:13;;;;;;;;;0.00;0.00;;;;;13.94;77.04;100436.16;5037549;28;8921;-60
2022/10/06 00:28:41;;;;;;;;;3.00;0.00;;;;;13.93;77.07;100436.28;5037286;28;8851;-62
2022/10/06 00:31:09;;;;;;;;;0.75;0.00;;;;;13.93;76.43;100426.44;5037698;28;8840;-59
2022/10/06 00:33:37;;;;;;;;;0.00;0.00;;;;;13.93;76.82;100439.81;5037864;28;8959;-59
2022/10/06 00:36:06;;;;;;;;;0.00;0.00;;;;;13.91;76.58;100431.09;5037674;28;8832;-60
2022/10/06 00:38:33;;;;;;;;;1.00;1.00;;;;;13.91;76.42;100444.47;5037237;28;8928;-61
2022/10/06 00:41:01;;;;;;;;;0.00;0.00;;;;;13.90;76.39;100445.44;5037768;28;8863;-60
2022/10/06 00:43:29;;;;;;;;;0.00;0.00;;;;;13.90;76.44;100447.28;5037768;28;8934;-59
2022/10/06 00:45:57;;;;;;;;;0.00;0.00;;;;;13.89;75.92;100441.06;5037890;28;8925;-62
2022/10/06 00:48:24;;;;;;;;;0.00;0.00;;;;;13.90;76.16;100439.25;5037536;28;8956;-60
2022/10/06 00:50:52;;;;;;;;;0.00;0.00;;;;;13.91;76.06;100447.16;5037172;28;8852;-60
2022/10/06 00:53:20;;;;;;;;;0.00;0.00;;;;;13.92;75.30;100450.66;5037128;28;8835;-59
2022/10/06 00:55:48;;;;;;;;;0.00;0.00;;;;;13.93;75.67;100460.38;5037369;28;8832;-60
2022/10/06 00:58:16;;;;;;;;;0.00;0.00;;;;;13.94;75.88;100456.72;5036952;28;8832;-59
2022/10/06 01:00:43;;;;;;;;;1.00;1.00;;;;;13.95;75.42;100464.63;5036958;28;8828;-59
2022/10/06 01:03:11;;;;;;;;;0.00;0.00;;;;;13.96;75.57;100473.53;5037289;28;8843;-61
2022/10/06 01:05:40;;;;;;;;;0.25;0.00;;;;;13.96;75.09;100466.34;5037486;28;8832;-62
2022/10/06 01:08:08;;;;;;;;;0.00;0.00;;;;;13.96;75.24;100486.94;5037678;28;8851;-62
2022/10/06 01:10:36;;;;;;;;;0.00;0.00;;;;;13.97;75.35;100485.94;5037766;28;8844;-62
2022/10/06 01:13:03;;;;;;;;;0.00;0.00;;;;;13.98;75.29;100471.56;5037327;28;8919;-60
2022/10/06 01:15:32;;;;;;;;;0.00;0.00;;;;;13.99;74.75;100484.84;5037492;28;8945;-61
2022/10/06 01:18:00;;;;;;;;;0.00;0.00;;;;;14.00;75.01;100496.38;5037162;28;8905;-60
2022/10/06 01:20:28;;;;;;;;;0.00;0.00;;;;;14.01;74.85;100493.59;5037074;28;8937;-59
2022/10/06 01:22:57;;;;;;;;;0.00;0.00;;;;;14.02;74.79;100502.44;5037263;28;8831;-62
2022/10/06 01:25:24;;;;;;;;;0.00;0.00;;;;;14.01;74.35;100509.66;5036972;28;8855;-60
2022/10/06 01:27:53;;;;;;;;;0.00;0.00;;;;;13.99;74.10;100513.44;5037215;28;8835;-60
2022/10/06 01:30:21;;;;;;;;;0.00;0.00;;;;;13.96;74.83;100516.38;5036800;28;8837;-62
2022/10/06 01:32:49;;;;;;;;;0.00;0.00;;;;;13.92;74.63;100514.94;5037219;28;8860;-61
2022/10/06 01:35:16;;;;;;;;;0.00;0.00;;;;;13.89;74.62;100525.91;5037070;28;8835;-62
2022/10/06 01:37:44;;;;;;;;;0.00;0.00;;;;;13.85;74.47;100527.13;5036850;28;8881;-61
2022/10/06 01:40:11;;;;;;;;;0.00;0.00;;;;;13.81;74.96;100523.03;5036975;28;8909;-61
2022/10/06 01:42:39;;;;;;;;;0.00;0.00;;;;;13.78;74.51;100524.13;5036958;28;8823;-62
2022/10/06 01:45:07;;;;;;;;;0.00;0.00;;;;;13.76;74.66;100535.94;5036756;28;8933;-60
2022/10/06 01:47:35;;;;;;;;;0.00;0.00;;;;;13.77;74.53;100537.63;5036869;28;9525;-60
2022/10/06 01:50:06;;;;;;;;;0.00;0.00;;;;;13.75;74.62;100539.59;5037103;28;8910;-60
2022/10/06 01:52:34;;;;;;;;;0.00;0.00;;;;;13.71;74.35;100541.66;5036698;28;8832;-59
2022/10/06 01:55:02;;;;;;;;;0.00;0.00;;;;;13.69;74.19;100550.78;5036931;28;8840;-60
2022/10/06 01:57:29;;;;;;;;;0.00;0.00;;;;;13.65;74.34;100552.00;5037238;28;8855;-60
2022/10/06 01:59:57;;;;;;;;;0.00;0.00;;;;;13.61;75.07;100553.25;5036482;28;8917;-60
2022/10/06 02:02:25;;;;;;;;;0.00;0.00;;;;;13.57;74.78;100551.78;5036978;28;8827;-60
2022/10/06 02:04:55;;;;;;;;;0.50;0.50;;;;;13.51;75.04;100563.03;5036746;28;8836;-60
2022/10/06 02:07:23;;;;;;;;;0.00;0.00;;;;;13.50;75.28;100572.00;5036477;28;8848;-59
2022/10/06 02:09:51;;;;;;;;;1.00;0.25;;;;;13.47;75.36;100561.56;5037374;28;8835;-60
2022/10/06 02:12:19;;;;;;;;;0.00;0.00;;;;;13.47;75.17;100566.91;5036330;28;8831;-60
2022/10/06 02:14:47;;;;;;;;;0.25;0.25;;;;;13.45;75.16;100564.34;5036590;28;8909;-62
2022/10/06 02:17:14;;;;;;;;;0.00;0.00;;;;;13.45;75.22;100572.38;5036609;28;8835;-59
2022/10/06 02:19:42;;;;;;;;;0.50;0.00;;;;;13.44;74.71;100583.22;5036362;28;8891;-59
2022/10/06 02:22:10;;;;;;;;;0.00;0.00;;;;;13.42;75.19;100580.66;5036608;28;8824;-62
2022/10/06 02:24:37;;;;;;;;;0.00;0.00;;;;;13.41;74.99;100589.66;5036001;28;8917;-60
2022/10/06 02:27:05;;;;;;;;;0.00;0.00;;;;;13.41;75.15;100589.66;5036274;28;8909;-60
2022/10/06 02:29:33;;;;;;;;;0.00;0.00;;;;;13.41;74.96;100595.03;5035553;28;8836;-60
2022/10/06 02:32:01;;;;;;;;;0.00;0.00;;;;;13.38;74.71;100589.06;5035965;28;9524;-60
2022/10/06 02:34:29;;;;;;;;;0.00;0.00;;;;;13.39;74.89;100598.78;5036230;28;9490;-60
2022/10/06 02:36:56;;;;;;;;;1.00;0.50;;;;;13.40;74.20;100603.16;5036465;28;8906;-60
2022/10/06 02:39:24;;;;;;;;;0.00;0.00;;;;;13.40;75.22;100613.88;5036628;28;8824;-61
2022/10/06 02:41:51;;;;;;;;;0.00;0.00;;;;;13.39;74.89;100617.53;5036278;28;8836;-60
2022/10/06 02:44:19;;;;;;;;;0.75;0.00;;;;;13.37;74.90;100608.78;5035427;28;8863;-60
2022/10/06 02:46:47;;;;;;;;;0.00;0.00;;;;;13.35;74.61;100616.06;5035725;28;8828;-60
2022/10/06 02:49:15;;;;;;;;;0.50;0.50;;;;;13.33;74.81;100618.88;5035728;28;8840;-62
2022/10/06 02:51:42;;;;;;;;;0.00;0.00;;;;;13.33;74.54;100623.34;5035928;28;8832;-59
2022/10/06 02:54:11;;;;;;;;;0.00;0.00;;;;;13.32;74.72;100629.69;5035863;28;8871;-59
2022/10/06 02:56:38;;;;;;;;;0.00;0.00;;;;;13.31;74.99;100633.34;5035761;28;8835;-60
2022/10/06 02:59:06;;;;;;;;;0.00;0.00;;;;;13.30;74.85;100632.47;5035512;28;8816;-60
2022/10/06 03:01:34;;;;;;;;;0.00;0.00;;;;;13.30;74.95;100647.69;5035515;28;8839;-59
2022/10/06 03:04:01;;;;;;;;;0.00;0.00;;;;;13.29;74.51;100648.66;5034915;28;9014;-59
2022/10/06 03:06:29;;;;;;;;;0.00;0.00;;;;;13.27;74.46;100653.25;5035312;28;8836;-59
2022/10/06 03:08:57;;;;;;;;;1.00;0.00;;;;;13.26;74.71;100659.59;5035310;28;8931;-60
2022/10/06 03:11:25;;;;;;;;;0.25;0.25;;;;;13.25;74.65;100663.25;5035745;28;8828;-59
2022/10/06 03:13:53;;;;;;;;;0.00;0.00;;;;;13.24;74.93;100666.88;5035359;28;8848;-60
2022/10/06 03:16:20;;;;;;;;;0.00;0.00;;;;;13.27;74.63;100670.19;5035731;28;8921;-59
2022/10/06 03:18:48;;;;;;;;;2.25;1.75;;;;;13.31;74.94;100679.69;5035426;28;8858;-60
2022/10/06 03:21:16;;;;;;;;;0.00;0.00;;;;;13.35;74.09;100680.28;5035396;28;8836;-60
2022/10/06 03:23:44;;;;;;;;;0.00;0.00;;;;;13.41;74.41;100675.28;5036050;28;8895;-60
2022/10/06 03:26:11;;;;;;;;;0.00;0.00;;;;;13.46;73.84;100680.28;5035375;28;8847;-59
2022/10/06 03:28:39;;;;;;;;;1.00;0.00;;;;;13.51;74.11;100675.41;5035043;28;8840;-59
2022/10/06 03:31:07;;;;;;;;;1.00;1.00;;;;;13.56;73.82;100689.25;5034988;28;8847;-59
2022/10/06 03:33:35;;;;;;;;;0.50;0.25;;;;;13.60;74.07;100691.56;5034264;28;8913;-60
2022/10/06 03:36:03;;;;;;;;;0.00;0.00;;;;;13.64;73.54;100693.03;5035317;28;8899;-59
2022/10/06 03:38:31;;;;;;;;;0.00;0.00;;;;;13.69;73.59;100695.34;5035169;28;9561;-59
2022/10/06 03:40:59;;;;;;;;;0.00;0.00;;;;;13.72;73.57;100700.44;5035136;28;8832;-60
2022/10/06 03:43:26;;;;;;;;;0.50;0.00;;;;;13.73;73.32;100704.84;5035023;28;8921;-59
2022/10/06 03:45:54;;;;;;;;;1.50;1.50;;;;;13.72;73.50;100701.28;5035342;28;8856;-60
2022/10/06 03:48:22;;;;;;;;;0.00;0.00;;;;;13.73;73.34;100708.34;5035621;28;8820;-60
2022/10/06 03:50:50;;;;;;;;;0.50;0.50;;;;;13.73;73.86;100707.50;5035760;28;8913;-61
2022/10/06 03:53:17;;;;;;;;;0.00;0.00;;;;;13.69;73.33;100701.56;5035299;28;8921;-62
2022/10/06 03:55:45;;;;;;;;;0.00;0.00;;;;;13.66;73.67;100715.16;5035161;28;8842;-62
2022/10/06 03:58:13;;;;;;;;;2.00;0.50;;;;;13.60;73.34;100731.69;5038813;28;8913;-62
2022/10/06 04:00:41;;;;;;;;;0.00;0.00;;;;;13.54;73.74;100728.69;5038579;28;8917;-62
2022/10/06 04:03:09;;;;;;;;;1.50;1.00;;;;;13.47;74.25;100741.69;5038816;28;8914;-60
2022/10/06 04:05:36;;;;;;;;;0.00;0.00;;;;;13.42;74.40;100746.53;5038935;28;8851;-61
2022/10/06 04:08:04;;;;;;;;;0.75;0.75;;;;;13.40;74.12;100747.63;5038303;28;8897;-61
2022/10/06 04:10:32;;;;;;;;;0.25;0.00;;;;;13.36;74.37;100748.88;5038464;28;8847;-60
2022/10/06 04:13:00;;;;;;;;;0.00;0.00;;;;;13.31;73.84;100759.94;5038454;28;8917;-59
2022/10/06 04:15:27;;;;;;;;;0.75;0.00;;;;;13.30;74.61;100763.53;5038749;28;8945;-62
2022/10/06 04:17:55;;;;;;;;;0.75;0.75;;;;;13.30;74.67;100763.53;5038877;28;8828;-59
2022/10/06 04:20:22;;;;;;;;;0.00;0.00;;;;;13.27;74.13;100769.16;5038359;28;8851;-59
2022/10/06 04:22:51;;;;;;;;;0.75;0.75;;;;;13.23;74.21;100769.50;5038364;28;8915;-59
2022/10/06 04:25:19;;;;;;;;;0.25;0.25;;;;;13.20;74.02;100777.78;5038554;28;8835;-60
2022/10/06 04:27:47;;;;;;;;;0.00;0.00;;;;;13.17;74.48;100783.34;5038666;28;8835;-59
2022/10/06 04:30:14;;;;;;;;;1.00;1.00;;;;;13.12;74.61;100781.03;5037795;28;8816;-59
2022/10/06 04:32:42;;;;;;;;;1.00;1.00;;;;;13.07;74.66;100783.19;5038323;28;8886;-59
2022/10/06 04:35:09;;;;;;;;;0.50;0.50;;;;;13.05;74.72;100789.66;5038291;28;8843;-61
2022/10/06 04:37:37;;;;;;;;;0.75;0.25;;;;;13.00;74.99;100795.31;5038004;28;8820;-61
2022/10/06 04:40:05;;;;;;;;;1.00;0.25;;;;;12.96;74.99;100796.53;5037948;28;8898;-62
2022/10/06 04:42:33;;;;;;;;;0.50;0.50;;;;;12.95;75.01;100799.31;5037969;28;8828;-62
2022/10/06 04:45:01;;;;;;;;;1.00;0.00;;;;;12.90;75.46;100796.97;5037811;28;8867;-61
2022/10/06 04:47:29;;;;;;;;;0.00;0.00;;;;;12.88;75.33;100806.06;5037480;28;8836;-61
2022/10/06 04:49:57;;;;;;;;;0.00;0.00;;;;;12.86;74.74;100805.34;5037761;28;8836;-61
2022/10/06 04:52:25;;;;;;;;;0.25;0.25;;;;;12.83;75.52;100805.56;5037686;28;8931;-61
2022/10/06 04:54:52;;;;;;;;;0.00;0.00;;;;;12.81;75.19;100807.47;5037169;28;8923;-62
2022/10/06 04:57:20;;;;;;;;;2.00;2.00;;;;;12.75;75.80;100813.31;5037743;28;8844;-61
2022/10/06 05:02:40;;;;;;;;;0.00;0.00;;;;;12.69;75.35;100838.66;5037582;28;8855;-62
2022/10/06 05:05:08;;;;;;;;;0.75;0.75;;;;;12.67;75.57;100831.72;5037693;28;8844;-59
2022/10/06 05:07:36;;;;;;;;;0.50;0.50;;;;;12.63;75.54;100840.94;5036738;28;9434;-61
2022/10/06 05:10:03;;;;;;;;;4.00;1.00;;;;;12.62;75.73;100844.56;5036367;28;8921;-60
2022/10/06 05:12:31;;;;;;;;;0.75;0.75;;;;;12.61;75.59;100846.38;5036860;28;8840;-60
2022/10/06 05:14:59;;;;;;;;;2.50;1.00;;;;;12.60;75.42;100851.88;5036518;28;8856;-62
2022/10/06 05:17:27;;;;;;;;;2.75;0.75;;;;;12.58;75.21;100851.97;5036366;28;8917;-62
2022/10/06 05:19:54;;;;;;;;;1.00;0.00;;;;;12.57;75.64;100860.09;5036559;28;8919;-61
2022/10/06 05:22:22;;;;;;;;;1.00;1.00;;;;;12.56;75.03;100855.72;5036539;28;8848;-62
2022/10/06 05:24:52;;;;;;;;;0.50;0.50;;;;;12.54;75.29;100863.00;5036854;28;8844;-60
2022/10/06 05:27:22;;;;;;;;;0.00;0.00;;;;;12.50;75.92;100866.84;5036576;28;8835;-62
2022/10/06 05:29:49;;;;;;;;;0.00;0.00;;;;;12.49;76.42;100875.81;5035836;28;8900;-62
2022/10/06 05:32:17;;;;;;;;;0.00;0.00;;;;;12.46;76.53;100881.41;5036115;28;8844;-62
2022/10/06 05:34:44;;;;;;;;;0.75;0.75;;;;;12.43;75.92;100889.63;5036347;28;8851;-60
2022/10/06 05:37:12;;;;;;;;;0.00;0.00;;;;;12.39;75.72;100888.16;5036633;28;8921;-63
2022/10/06 05:39:40;;;;;;;;;0.00;0.00;;;;;12.39;75.60;100901.50;5036525;28;8851;-61
2022/10/06 05:42:07;;;;;;;;;0.00;0.00;;;;;12.37;75.90;100911.41;5035794;28;8933;-61
2022/10/06 05:44:35;;;;;;;;;0.00;0.00;;;;;12.34;75.55;100907.19;5036497;28;8856;-62
2022/10/06 05:47:03;;;;;;;;;0.00;0.00;;;;;12.34;76.15;100919.66;5035699;28;9884;-61
2022/10/06 05:49:31;;;;;;;;;1.00;1.00;;;;;12.32;75.87;100916.25;5035811;28;8929;-62
2022/10/06 05:51:59;;;;;;;;;0.25;0.25;;;;;12.30;75.74;100916.34;5036333;28;8847;-61
2022/10/06 05:54:26;;;;;;;;;0.75;0.00;;;;;12.29;75.78;100919.13;5036565;28;8835;-60
2022/10/06 05:56:54;;;;;;;;;0.50;0.50;;;;;12.27;76.02;100929.06;5036448;28;8874;-62
2022/10/06 05:59:22;;;;;;;;;0.00;0.00;;;;;12.26;76.15;100930.03;5035648;28;8828;-61
2022/10/06 06:01:50;;;;;;;;;1.00;0.25;;;;;12.25;76.24;100929.16;5035936;28;9590;-60
2022/10/06 06:04:19;;;;;;;;;1.00;1.00;;;;;12.23;76.17;100936.44;5036234;28;8844;-61
2022/10/06 06:06:47;;;;;;;;;0.00;0.00;;;;;12.21;76.22;100935.72;5035763;28;8863;-63
2022/10/06 06:09:15;;;;;;;;;1.00;0.50;;;;;12.21;76.15;100943.72;5035467;28;8843;-61
2022/10/06 06:11:43;;;;;;;;;2.25;0.00;;;;;12.20;76.25;100943.81;5035229;28;8850;-61
2022/10/06 06:14:10;;;;;;;;;0.00;0.00;;;;;12.20;75.78;100942.00;5035004;28;8840;-62
2022/10/06 06:16:37;;;;;;;;;0.50;0.00;;;;;12.21;75.77;100962.41;5035226;28;8827;-62
2022/10/06 06:19:05;;;;;;;;;1.00;0.50;;;;;12.22;76.09;100960.56;5035300;28;8846;-62
2022/10/06 06:21:33;;;;;;;;;0.75;0.75;;;;;12.24;76.29;100970.19;5034752;28;8864;-62
2022/10/06 06:24:01;;;;;;;;;0.00;0.00;;;;;12.24;76.06;100972.88;5035572;28;8824;-61
2022/10/06 06:26:28;;;;;;;;;1.00;0.25;;;;;12.26;76.11;100975.44;5035196;28;8932;-60
2022/10/06 06:28:59;;;;;;;;;1.00;1.00;;;;;12.26;75.70;100975.44;5035149;28;8824;-62
2022/10/06 06:31:26;;;;;;;;;0.50;0.50;;;;;12.28;75.79;100981.53;5035136;28;9780;-62
2022/10/06 06:33:54;;;;;;;;;1.00;1.00;;;;;12.30;76.11;100976.94;5035456;28;8836;-60
2022/10/06 06:36:23;;;;;;;;;0.50;0.50;;;;;12.31;75.89;100984.00;5035116;28;8844;-62
2022/10/06 06:38:51;;;;;;;;;0.00;0.00;;;;;12.34;76.09;100999.78;5035098;28;9544;-62
2022/10/06 06:41:19;;;;;;;;;0.50;0.50;;;;;12.35;75.85;100997.03;5034483;28;8840;-60
2022/10/06 06:43:48;;;;;;;;;2.00;2.00;;;;;12.37;75.95;100996.91;5033016;28;8859;-61
2022/10/06 06:46:16;;;;;;;;;1.00;0.75;;;;;12.39;75.49;101005.69;5032222;28;8863;-60
2022/10/06 06:48:44;;;;;;;;;1.75;0.75;;;;;12.41;75.54;101019.78;5031590;28;8836;-62
2022/10/06 06:51:11;;;;;;;;;1.00;1.00;;;;;12.41;75.32;101017.09;5032784;28;8860;-61
2022/10/06 06:53:40;;;;;;;;;1.00;0.00;;;;;12.43;75.45;101025.84;5032867;28;8835;-61
2022/10/06 06:56:08;;;;;;;;;1.00;0.00;;;;;12.45;75.66;101035.47;5034239;28;9541;-62
2022/10/06 06:58:35;;;;;;;;;0.50;0.00;;;;;12.48;75.54;101043.31;5033662;28;8827;-60
2022/10/06 07:01:03;;;;;;;;;1.00;0.00;;;;;12.50;75.67;101041.38;5033324;28;8840;-62
2022/10/06 07:03:31;;;;;;;;;0.00;0.00;;;;;12.53;75.49;101041.13;5032838;28;8852;-61
2022/10/06 07:06:19;;;;;;;;;1.00;1.00;;;;;12.58;75.13;101048.81;5032991;28;8868;-62
2022/10/06 07:08:53;;;;;;;;;0.50;0.50;;;;;12.61;75.15;101045.97;5033117;28;8827;-62
2022/10/06 07:11:20;;;;;;;;;3.25;2.00;;;;;12.65;75.21;101050.97;5032922;28;8839;-62
2022/10/06 07:13:48;;;;;;;;;1.00;0.50;;;;;12.70;75.30;101053.31;5034164;28;8937;-60
2022/10/06 07:27:22;;;;;;;;;2.50;1.00;;;;;13.23;73.69;101071.75;5033732;28;8945;-62
2022/10/06 07:29:53;;;;;;;;;2.50;0.00;;;;;13.31;74.11;101072.94;5033722;28;8840;-60
2022/10/06 07:32:22;;;;;;;;;3.00;2.00;;;;;13.40;73.64;101080.28;5036503;28;8974;-61
2022/10/06 07:34:50;;;;;;;;;1.00;0.75;;;;;13.48;73.35;101083.25;5037089;28;8824;-62
2022/10/06 07:37:18;;;;;;;;;0.00;0.00;;;;;13.59;73.03;101085.13;5037314;28;8847;-60
2022/10/06 07:39:48;;;;;;;;;0.00;0.00;;;;;13.72;73.22;101086.78;5037803;28;8839;-63
2022/10/06 07:42:16;;;;;;;;;1.50;0.75;;;;;13.84;72.67;101101.09;5038304;28;8836;-60
2022/10/06 07:44:44;;;;;;;;;0.00;0.00;;;;;13.90;72.59;101101.47;5038283;28;9879;-62
2022/10/06 07:47:31;;;;;;;;;0.25;0.25;;;;;14.00;72.11;101098.97;5037594;28;8978;-60
2022/10/06 07:50:00;;;;;;;;;0.00;0.00;;;;;14.08;72.25;101107.28;5037946;28;8828;-60
2022/10/06 07:52:28;;;;;;;;;0.00;0.00;;;;;14.10;71.94;101108.88;5037090;28;9552;-60
2022/10/06 07:54:57;;;;;;;;;1.00;1.00;;;;;14.12;72.06;101116.81;5037307;28;8835;-61
2022/10/06 07:57:25;;;;;;;;;1.00;1.00;;;;;14.13;72.14;101113.97;5037862;28;8925;-60
2022/10/06 07:59:53;;;;;;;;;1.00;0.00;;;;;14.15;72.11;101114.75;5036495;28;8835;-60
2022/10/06 08:02:27;;;;;;;;;1.00;1.00;;;;;14.20;71.71;101111.75;5036795;28;8835;-60
2022/10/06 08:05:01;;;;;;;;;1.00;1.00;;;;;14.25;72.00;101117.59;5036927;28;8918;-61
2022/10/06 08:07:28;;;;;;;;;0.00;0.00;;;;;14.30;71.75;101115.44;5037218;28;8859;-62
2022/10/06 08:09:56;;;;;;;;;1.00;1.00;;;;;14.35;71.42;101123.97;5036872;28;8824;-60
2022/10/06 08:15:10;;;;;;;;;1.00;0.25;;;;;14.44;71.11;101121.47;5017808;28;8862;-62
2022/10/06 08:17:38;;;;;;;;;0.75;0.00;;;;;14.48;71.75;101133.63;5017605;28;8861;-61
2022/10/06 08:20:06;;;;;;;;;1.00;0.00;;;;;14.58;71.21;101134.63;5017398;28;8877;-61
2022/10/06 08:22:35;;;;;;;;;0.50;0.50;;;;;14.75;71.02;101152.09;5017692;28;8850;-61
2022/10/06 08:25:02;;;;;;;;;0.25;0.25;;;;;14.98;70.35;101148.47;5017049;28;8862;-63
2022/10/06 08:27:34;;;;;;;;;2.00;0.50;;;;;15.20;70.08;101151.19;5017142;28;8858;-61
2022/10/06 08:30:02;;;;;;;;;1.00;0.50;;;;;15.37;69.25;101156.09;5030944;28;8971;-62
2022/10/06 08:32:30;;;;;;;;;0.25;0.25;;;;;15.42;69.56;101153.91;5035941;28;8847;-61
2022/10/06 08:34:59;;;;;;;;;1.40;0.60;;;;;15.38;69.24;101164.03;5036213;28;8962;-61
2022/10/06 08:37:28;;;;;;;;;0.00;0.00;;;;;15.43;68.91;101163.66;5036129;28;8843;-60
2022/10/06 08:39:56;;;;;;;;;1.00;1.00;;;;;15.46;69.49;101166.09;5035292;28;8836;-60
2022/10/06 08:42:24;;;;;;;;;0.00;0.00;;;;;15.47;69.20;101165.97;5035064;28;8847;-62
2022/10/06 08:44:55;;;;;;;;;1.00;1.00;;;;;15.38;69.21;101177.44;5035575;28;9560;-61
2022/10/06 08:47:23;;;;;;;;;1.00;0.80;;;;;15.37;69.42;101170.38;5035053;28;8941;-60
2022/10/06 08:49:52;;;;;;;;;1.40;0.40;;;;;15.40;68.96;101172.78;5035936;28;9565;-61
2022/10/06 08:52:20;;;;;;;;;1.00;1.00;;;;;15.42;68.92;101167.31;5035467;28;8828;-60
2022/10/06 08:54:48;;;;;;;;;0.00;0.00;;;;;15.43;69.06;101174.38;5033842;28;8963;-61
2022/10/06 08:57:16;;;;;;;;;0.20;0.00;;;;;15.43;68.51;101169.03;5032647;28;8852;-60
2022/10/06 08:59:44;;;;;;;;;0.00;0.00;;;;;15.38;68.79;101181.94;5033446;28;9038;-61
2022/10/06 09:02:14;;;;;;;;;0.00;0.00;;;;;15.40;68.64;101171.97;5034170;28;8840;-60
2022/10/06 09:04:42;;;;;;;;;1.00;1.00;;;;;15.47;68.86;101175.88;5034590;28;8931;-61
2022/10/06 09:07:10;;;;;;;;;2.20;0.00;;;;;15.57;68.15;101172.31;5035193;28;8851;-62
2022/10/06 09:09:38;;;;;;;;;0.80;0.80;;;;;15.64;68.47;101180.72;5036037;28;8843;-62
2022/10/06 09:12:06;;;;;;;;;0.80;0.80;;;;;15.73;68.17;101180.84;5036110;28;8862;-61
2022/10/06 09:14:35;;;;;;;;;0.80;0.20;;;;;15.79;68.46;101184.84;5034879;28;8850;-62
2022/10/06 09:17:03;;;;;;;;;0.00;0.00;;;;;15.77;67.79;101200.25;5034873;28;8975;-60
2022/10/06 09:19:31;;;;;;;;;3.00;1.40;;;;;15.72;67.76;101192.56;5033637;28;8828;-62
2022/10/06 09:22:01;;;;;;;;;1.00;1.00;;;;;15.63;68.50;101197.81;5034573;28;8986;-62
2022/10/06 09:24:29;;;;;;;;;3.40;1.00;;;;;15.54;68.26;101193.19;5034709;28;8855;-61
2022/10/06 09:26:57;;;;;;;;;0.00;0.00;;;;;15.45;68.94;101200.16;5033879;28;8858;-61
2022/10/06 09:29:30;;;;;;;;;0.00;0.00;;;;;15.37;69.05;101196.34;5034204;28;8925;-62
2022/10/06 09:31:58;;;;;;;;;0.00;0.00;;;;;15.37;68.79;101204.41;5034341;28;8848;-59
2022/10/06 09:34:26;;;;;;;;;0.40;0.00;;;;;15.34;69.00;101204.66;5034836;28;8870;-60
2022/10/06 09:36:54;;;;;;;;;1.40;1.00;;;;;15.29;68.64;101204.13;5034350;28;8858;-61
2022/10/06 09:39:31;;;;;;;;;0.00;0.00;;;;;15.31;69.04;101207.56;5034356;28;8962;-60
2022/10/06 09:41:59;;;;;;;;;3.00;3.00;;;;;15.38;68.21;101219.53;5035390;28;8848;-62
2022/10/06 09:44:27;;;;;;;;;1.20;0.00;;;;;15.47;68.35;101218.81;5034861;28;8860;-63
2022/10/06 09:46:55;;;;;;;;;0.80;0.80;;;;;15.56;67.95;101216.25;5035573;28;8917;-61
2022/10/06 09:49:23;;;;;;;;;0.20;0.00;;;;;15.79;67.76;101225.97;5035203;28;8869;-61
2022/10/06 09:51:51;;;;;;;;;1.00;1.00;;;;;16.06;66.58;101220.19;5034346;28;8839;-62
2022/10/06 09:54:19;;;;;;;;;0.60;0.60;;;;;16.40;66.47;101228.94;5033874;28;8844;-61
2022/10/06 09:56:47;;;;;;;;;1.00;1.00;;;;;16.79;65.34;101225.59;5033407;28;8847;-61
2022/10/06 09:59:15;;;;;;;;;0.40;0.40;;;;;17.44;63.88;101223.50;5032916;28;8823;-61
2022/10/06 10:01:43;;;;;;;;;0.60;0.00;;;;;18.18;62.50;101220.34;5033994;28;8913;-61
2022/10/06 10:04:13;;;;;;;;;0.20;0.00;;;;;18.97;60.63;101214.72;5033416;28;8859;-60
2022/10/06 10:06:47;;;;;;;;;1.40;0.80;;;;;19.75;59.51;101204.41;5032832;28;8894;-60
2022/10/06 10:09:16;;;;;;;;;0.00;0.00;;;;;20.18;58.59;101215.44;5033149;28;8831;-61
2022/10/06 10:14:34;;;;;;;;;1.00;1.00;;;;;20.02;58.95;101211.69;5033598;28;8872;-60
2022/10/06 10:17:02;;;;;;;;;0.00;0.00;;;;;19.68;59.50;101210.56;5033294;28;8843;-62
2022/10/06 10:19:31;;;;;;;;;1.00;1.00;;;;;19.51;60.45;101217.59;5034171;28;8828;-61
2022/10/06 10:21:59;;;;;;;;;0.20;0.20;;;;;19.61;60.76;101215.72;5033459;28;8979;-61
2022/10/06 10:24:27;;;;;;;;;0.00;0.00;;;;;19.93;59.81;101218.81;5033396;28;8828;-62
2022/10/06 10:26:56;;;;;;;;;0.20;0.00;;;;;20.16;59.02;101224.72;5034011;28;9528;-62
2022/10/06 10:29:29;;;;;;;;;0.00;0.00;;;;;19.94;59.57;101223.22;5032425;28;9057;-62
2022/10/06 10:32:01;;;;;;;;;0.00;0.00;;;;;19.39;60.28;101221.47;5033481;28;8839;-61
2022/10/06 10:34:29;;;;;;;;;0.80;0.80;;;;;19.57;59.98;101225.09;5033036;28;8978;-61
2022/10/06 10:36:57;;;;;;;;;0.60;0.60;;;;;19.91;59.03;101219.97;5032890;28;8868;-62
2022/10/06 10:39:25;;;;;;;;;1.00;1.00;;;;;20.37;58.13;101231.56;5033032;28;8848;-61
2022/10/06 10:41:53;;;;;;;;;1.00;1.00;;;;;20.79;57.17;101221.78;5033452;28;8843;-61
2022/10/06 10:44:21;;;;;;;;;0.00;0.00;;;;;21.01;56.30;101219.50;5033692;28;9559;-62
2022/10/06 10:46:49;;;;;;;;;1.00;1.00;;;;;21.26;55.02;101221.38;5033650;28;8897;-61
2022/10/06 10:49:18;;;;;;;;;0.00;0.00;;;;;21.70;54.66;101219.47;5033417;28;8941;-61
2022/10/06 10:51:45;;;;;;;;;1.00;1.00;;;;;21.93;53.19;101215.16;5033325;28;8909;-63
2022/10/06 10:54:13;;;;;;;;;2.00;0.00;;;;;21.63;54.16;101223.81;5033396;28;8858;-61
2022/10/06 10:56:42;;;;;;;;;1.00;1.00;;;;;20.80;56.28;101226.22;5033491;28;8828;-63
2022/10/06 10:59:10;;;;;;;;;1.00;1.00;;;;;19.94;58.01;101234.06;5033283;28;8960;-61
2022/10/06 11:01:38;;;;;;;;;1.00;1.00;;;;;19.39;59.35;101234.13;5033674;28;8839;-61
2022/10/06 11:04:06;;;;;;;;;0.00;0.00;;;;;18.99;59.39;101239.75;5033757;28;8859;-62
2022/10/06 11:06:34;;;;;;;;;2.20;0.80;;;;;18.79;59.93;101237.19;5036573;28;8843;-61
2022/10/06 11:09:02;;;;;;;;;1.80;1.80;;;;;18.90;59.01;101235.19;5040695;28;8861;-61
2022/10/06 11:11:30;;;;;;;;;1.00;1.00;;;;;19.03;58.68;101232.22;5040278;28;8913;-60
2022/10/06 11:13:58;;;;;;;;;0.00;0.00;;;;;19.08;58.38;101238.88;5040217;28;8862;-60
2022/10/06 11:16:26;;;;;;;;;1.00;1.00;;;;;19.19;57.39;101232.47;5039522;28;8843;-60
2022/10/06 11:18:54;;;;;;;;;0.60;0.60;;;;;19.44;57.34;101232.72;5037741;28;8835;-61
2022/10/06 11:21:22;;;;;;;;;0.00;0.00;;;;;19.69;55.96;101240.16;5039016;28;8847;-61
2022/10/06 11:23:52;;;;;;;;;0.00;0.00;;;;;20.06;55.23;101241.00;5039024;28;8973;-61
2022/10/06 11:26:20;;;;;;;;;0.00;0.00;;;;;20.30;54.66;101244.00;5038087;28;8985;-60
2022/10/06 11:28:48;;;;;;;;;1.20;1.00;;;;;20.72;54.25;101245.13;5038237;28;8856;-61
2022/10/06 11:31:16;;;;;;;;;0.00;0.00;;;;;20.50;54.32;101237.44;5039493;28;8879;-60
2022/10/06 11:33:49;;;;;;;;;1.00;1.00;;;;;20.49;54.63;101241.13;5038890;28;8835;-60
2022/10/06 11:36:17;;;;;;;;;0.60;0.60;;;;;21.34;53.40;101236.84;5039126;28;8840;-61
2022/10/06 11:38:45;;;;;;;;;1.00;0.60;;;;;22.35;51.87;101230.41;5037403;28;8865;-61
2022/10/06 11:41:13;;;;;;;;;0.20;0.00;;;;;23.38;49.84;101223.34;5037804;28;8855;-61
2022/10/06 11:43:40;;;;;;;;;1.00;1.00;;;;;24.19;48.56;101223.97;5037898;28;8889;-62
2022/10/06 11:46:09;;;;;;;;;0.00;0.00;;;;;24.40;48.10;101226.91;5038461;28;8840;-61
2022/10/06 11:48:37;;;;;;;;;0.00;0.00;;;;;24.25;48.16;101215.06;5038380;28;8848;-62
2022/10/06 11:51:06;;;;;;;;;1.00;1.00;;;;;24.07;48.43;101225.38;5038137;28;8870;-61
2022/10/06 11:53:35;;;;;;;;;1.00;1.00;;;;;24.05;48.05;101217.38;5037612;28;8848;-62
2022/10/06 11:56:03;;;;;;;;;0.40;0.00;;;;;24.32;47.76;101213.31;5038106;28;8840;-62
2022/10/06 11:58:31;;;;;;;;;0.00;0.00;;;;;24.86;46.87;101207.69;5037707;28;8836;-62